Maxville, MT

12:29 AM MST on February 23, 2017 (GMT -0700)
MFLNM8 | | Change Station

Elev 4838 ft 46.46 °N, 113.24 °W | Updated 1 hour ago

Overcast
Overcast
27.0 °F
Feels Like 27.0 °F
N
-
Wind Variable Wind from North

Today
High -- | Low -- °F
--% Chance of Precip.
Yesterday
High -- | Low -- °F
Precip. -- in
Pressure 29.91 in
Visibility 10.0 miles
Clouds Overcast 5000 ft
Dew Point Not available.
Humidity Not available.
Rainfall in
Snow Depth Not available.
7:22 AM 6:10 PM
Waning Crescent, 12% visible
METAR KBTM 230653Z AUTO 00000KT 10SM OVC050 M05/M07 A2981 RMK AO2 SNB04E36 SLP126 P0000 T10501067 400061061
Pressure 29.91 in
Visibility 10.0 miles
Clouds Overcast 5000 ft
Dew Point Not available.
Humidity Not available.
Rainfall in
Snow Depth Not available.
7:22 AM 6:10 PM
Waning Crescent, 12% visible
METAR KBTM 230653Z AUTO 00000KT 10SM OVC050 M05/M07 A2981 RMK AO2 SNB04E36 SLP126 P0000 T10501067 400061061

Get Your Daily Forecast Email!

Thanks for signing up!

Be on the lookout for a verification email in your inbox.

You'll start receiving the daily forecast at 8 AM.

×

10-Day Weather Forecast

Almanac

Astronomy

Feb. 23, 2017 Rise Set
Actual Time
Civil Twilight
Nautical Twilight
Astronomical Twilight
Moon
Length of Visible Light
Length of Day
Tomorrow will be .
, % of the Moon is Illuminated

Today's Extremes

State Highs State Lows

Community

WunderPhotos

Upload Photos

1,962,540 photos uploaded!

WunderBlog® & News

Nearby

Air Quality

  Air Quality AQ Index Pollutant
Not available.

Snow Depth

Station Depth Elevation

Earthquake Activity

City Distance Mag. Time & Date
Minimum magnitude displayed is 2.5.

Coastal Water Temperatures

Place Temperature

Stations

Nearby Weather Stations

Station Location Temp. Windchill Dew Point Humidity Wind Precip. Elev Updated Type
                   

Watches & Warnings

There are currently no watches in effect.